sensor_id;sensor_type;location;lat;lon;timestamp;temperature;humidity
15099;DHT22;33900;53.640;9.942;2022-12-19T00:01:17;1.70;80.10
15099;DHT22;33900;53.640;9.942;2022-12-19T00:06:10;1.70;80.10
15099;DHT22;33900;53.640;9.942;2022-12-19T00:08:43;1.70;80.20
15099;DHT22;33900;53.640;9.942;2022-12-19T00:11:11;1.70;80.30
15099;DHT22;33900;53.640;9.942;2022-12-19T00:13:37;1.70;80.30
15099;DHT22;33900;53.640;9.942;2022-12-19T00:16:05;1.70;80.40
15099;DHT22;33900;53.640;9.942;2022-12-19T00:18:32;1.70;80.40
15099;DHT22;33900;53.640;9.942;2022-12-19T00:21:00;1.70;81.30
15099;DHT22;33900;53.640;9.942;2022-12-19T00:23:27;1.70;80.50
15099;DHT22;33900;53.640;9.942;2022-12-19T00:25:54;1.70;80.60
15099;DHT22;33900;53.640;9.942;2022-12-19T00:28:21;1.70;80.50
15099;DHT22;33900;53.640;9.942;2022-12-19T00:30:49;1.70;80.60
15099;DHT22;33900;53.640;9.942;2022-12-19T00:33:15;1.70;80.60
15099;DHT22;33900;53.640;9.942;2022-12-19T00:35:41;1.70;80.60
15099;DHT22;33900;53.640;9.942;2022-12-19T00:38:09;1.70;80.60
15099;DHT22;33900;53.640;9.942;2022-12-19T00:40:35;1.80;80.80
15099;DHT22;33900;53.640;9.942;2022-12-19T00:43:02;1.80;80.90
15099;DHT22;33900;53.640;9.942;2022-12-19T00:45:32;1.80;80.90
15099;DHT22;33900;53.640;9.942;2022-12-19T00:48:02;1.80;81.00
15099;DHT22;33900;53.640;9.942;2022-12-19T00:50:28;1.80;80.90
15099;DHT22;33900;53.640;9.942;2022-12-19T00:53:02;1.80;80.90
15099;DHT22;33900;53.640;9.942;2022-12-19T00:55:28;1.80;81.00
15099;DHT22;33900;53.640;9.942;2022-12-19T00:57:55;1.80;81.10
15099;DHT22;33900;53.640;9.942;2022-12-19T01:00:25;1.80;80.90
15099;DHT22;33900;53.640;9.942;2022-12-19T01:02:55;1.80;80.80
15099;DHT22;33900;53.640;9.942;2022-12-19T01:05:21;1.80;80.60
15099;DHT22;33900;53.640;9.942;2022-12-19T01:07:48;1.80;80.70
15099;DHT22;33900;53.640;9.942;2022-12-19T01:10:15;1.80;80.70
15099;DHT22;33900;53.640;9.942;2022-12-19T01:12:41;1.80;80.80
15099;DHT22;33900;53.640;9.942;2022-12-19T01:15:13;1.80;80.80
15099;DHT22;33900;53.640;9.942;2022-12-19T01:17:40;1.80;80.90
15099;DHT22;33900;53.640;9.942;2022-12-19T01:20:07;1.80;80.80
15099;DHT22;33900;53.640;9.942;2022-12-19T01:22:35;1.80;80.80
15099;DHT22;33900;53.640;9.942;2022-12-19T01:25:02;1.90;80.90
15099;DHT22;33900;53.640;9.942;2022-12-19T01:27:30;1.80;80.80
15099;DHT22;33900;53.640;9.942;2022-12-19T01:30:00;1.80;80.90
15099;DHT22;33900;53.640;9.942;2022-12-19T01:32:28;1.80;80.80
15099;DHT22;33900;53.640;9.942;2022-12-19T01:34:57;1.80;80.80
15099;DHT22;33900;53.640;9.942;2022-12-19T01:37:24;1.80;80.70
15099;DHT22;33900;53.640;9.942;2022-12-19T01:39:51;1.80;80.50
15099;DHT22;33900;53.640;9.942;2022-12-19T01:42:20;1.80;80.70
15099;DHT22;33900;53.640;9.942;2022-12-19T01:45:00;1.80;80.60
15099;DHT22;33900;53.640;9.942;2022-12-19T01:47:29;1.80;80.70
15099;DHT22;33900;53.640;9.942;2022-12-19T01:49:56;1.80;80.80
15099;DHT22;33900;53.640;9.942;2022-12-19T01:52:22;1.90;81.00
15099;DHT22;33900;53.640;9.942;2022-12-19T01:54:48;1.90;81.10
15099;DHT22;33900;53.640;9.942;2022-12-19T01:57:16;1.90;81.00
15099;DHT22;33900;53.640;9.942;2022-12-19T01:59:50;1.90;81.00
15099;DHT22;33900;53.640;9.942;2022-12-19T02:02:26;1.90;81.00
15099;DHT22;33900;53.640;9.942;2022-12-19T02:04:53;1.90;80.90
15099;DHT22;33900;53.640;9.942;2022-12-19T02:07:19;1.80;80.60
15099;DHT22;33900;53.640;9.942;2022-12-19T02:09:48;1.80;80.80
15099;DHT22;33900;53.640;9.942;2022-12-19T02:12:16;1.90;81.00
15099;DHT22;33900;53.640;9.942;2022-12-19T02:14:53;1.80;81.10
15099;DHT22;33900;53.640;9.942;2022-12-19T02:20:12;1.90;81.20
15099;DHT22;33900;53.640;9.942;2022-12-19T02:33:39;1.90;81.40
15099;DHT22;33900;53.640;9.942;2022-12-19T02:36:15;1.90;81.30
15099;DHT22;33900;53.640;9.942;2022-12-19T02:43:57;2.00;81.60
15099;DHT22;33900;53.640;9.942;2022-12-19T02:46:26;1.90;81.60
15099;DHT22;33900;53.640;9.942;2022-12-19T02:48:54;1.90;81.80
15099;DHT22;33900;53.640;9.942;2022-12-19T02:51:21;1.90;81.80
15099;DHT22;33900;53.640;9.942;2022-12-19T03:01:29;2.00;82.20
15099;DHT22;33900;53.640;9.942;2022-12-19T03:04:03;2.00;82.20
15099;DHT22;33900;53.640;9.942;2022-12-19T03:09:38;2.00;82.50
15099;DHT22;33900;53.640;9.942;2022-12-19T03:15:25;2.00;82.90
15099;DHT22;33900;53.640;9.942;2022-12-19T03:17:58;2.00;83.10
15099;DHT22;33900;53.640;9.942;2022-12-19T03:23:14;2.00;83.60
15099;DHT22;33900;53.640;9.942;2022-12-19T03:25:44;2.10;83.60
15099;DHT22;33900;53.640;9.942;2022-12-19T03:28:28;2.10;83.70
15099;DHT22;33900;53.640;9.942;2022-12-19T03:30:57;2.10;83.90
15099;DHT22;33900;53.640;9.942;2022-12-19T03:33:25;2.10;83.90
15099;DHT22;33900;53.640;9.942;2022-12-19T03:35:55;2.10;84.30
15099;DHT22;33900;53.640;9.942;2022-12-19T03:38:23;2.10;84.30
15099;DHT22;33900;53.640;9.942;2022-12-19T03:40:51;2.10;84.60
15099;DHT22;33900;53.640;9.942;2022-12-19T03:43:24;2.20;84.90
15099;DHT22;33900;53.640;9.942;2022-12-19T03:45:54;2.10;84.70
15099;DHT22;33900;53.640;9.942;2022-12-19T03:48:30;2.20;84.90
15099;DHT22;33900;53.640;9.942;2022-12-19T03:51:01;2.20;85.20
15099;DHT22;33900;53.640;9.942;2022-12-19T03:56:04;2.20;85.40
15099;DHT22;33900;53.640;9.942;2022-12-19T03:58:34;2.20;85.50
15099;DHT22;33900;53.640;9.942;2022-12-19T04:01:03;2.20;85.80
15099;DHT22;33900;53.640;9.942;2022-12-19T04:03:31;2.20;85.70
15099;DHT22;33900;53.640;9.942;2022-12-19T04:05:58;2.20;85.60
15099;DHT22;33900;53.640;9.942;2022-12-19T04:08:34;2.30;85.60
15099;DHT22;33900;53.640;9.942;2022-12-19T04:11:08;2.30;86.10
15099;DHT22;33900;53.640;9.942;2022-12-19T04:13:46;2.30;86.10
15099;DHT22;33900;53.640;9.942;2022-12-19T04:16:18;2.30;86.30
15099;DHT22;33900;53.640;9.942;2022-12-19T04:19:01;2.30;86.50
15099;DHT22;33900;53.640;9.942;2022-12-19T04:21:34;2.30;86.60
15099;DHT22;33900;53.640;9.942;2022-12-19T04:24:07;2.30;86.50
15099;DHT22;33900;53.640;9.942;2022-12-19T04:26:37;2.30;86.60
15099;DHT22;33900;53.640;9.942;2022-12-19T04:29:13;2.30;86.60
15099;DHT22;33900;53.640;9.942;2022-12-19T04:31:42;2.40;86.60
15099;DHT22;33900;53.640;9.942;2022-12-19T04:34:10;2.40;86.60
15099;DHT22;33900;53.640;9.942;2022-12-19T04:36:38;2.40;86.70
15099;DHT22;33900;53.640;9.942;2022-12-19T04:39:07;2.40;86.90
15099;DHT22;33900;53.640;9.942;2022-12-19T04:41:34;2.40;86.80
15099;DHT22;33900;53.640;9.942;2022-12-19T04:44:01;2.40;87.00
15099;DHT22;33900;53.640;9.942;2022-12-19T04:46:29;2.40;87.00
15099;DHT22;33900;53.640;9.942;2022-12-19T04:48:57;2.40;87.00
15099;DHT22;33900;53.640;9.942;2022-12-19T04:51:24;2.40;87.10
15099;DHT22;33900;53.640;9.942;2022-12-19T04:53:59;2.40;87.50
15099;DHT22;33900;53.640;9.942;2022-12-19T04:56:26;2.40;87.30
15099;DHT22;33900;53.640;9.942;2022-12-19T04:59:02;2.40;87.60
15099;DHT22;33900;53.640;9.942;2022-12-19T05:01:35;2.40;87.50
15099;DHT22;33900;53.640;9.942;2022-12-19T05:06:40;2.50;87.70
15099;DHT22;33900;53.640;9.942;2022-12-19T05:09:09;2.50;87.90
15099;DHT22;33900;53.640;9.942;2022-12-19T05:11:35;2.50;88.10
15099;DHT22;33900;53.640;9.942;2022-12-19T05:14:01;2.50;87.90
15099;DHT22;33900;53.640;9.942;2022-12-19T05:16:32;2.50;88.20
15099;DHT22;33900;53.640;9.942;2022-12-19T05:18:59;2.50;88.30
15099;DHT22;33900;53.640;9.942;2022-12-19T05:21:27;2.50;88.20
15099;DHT22;33900;53.640;9.942;2022-12-19T05:23:56;2.60;88.50
15099;DHT22;33900;53.640;9.942;2022-12-19T05:26:23;2.50;88.40
15099;DHT22;33900;53.640;9.942;2022-12-19T05:28:50;2.50;88.60
15099;DHT22;33900;53.640;9.942;2022-12-19T05:31:18;2.60;89.10
15099;DHT22;33900;53.640;9.942;2022-12-19T05:33:45;2.60;89.10
15099;DHT22;33900;53.640;9.942;2022-12-19T05:36:18;2.60;89.30
15099;DHT22;33900;53.640;9.942;2022-12-19T05:38:45;2.60;89.60
15099;DHT22;33900;53.640;9.942;2022-12-19T05:41:13;2.60;89.50
15099;DHT22;33900;53.640;9.942;2022-12-19T05:43:40;2.60;89.60
15099;DHT22;33900;53.640;9.942;2022-12-19T05:46:09;2.60;89.80
15099;DHT22;33900;53.640;9.942;2022-12-19T05:48:37;2.60;89.90
15099;DHT22;33900;53.640;9.942;2022-12-19T05:51:06;2.70;89.90
15099;DHT22;33900;53.640;9.942;2022-12-19T05:53:36;2.70;89.70
15099;DHT22;33900;53.640;9.942;2022-12-19T05:56:11;2.70;89.70
15099;DHT22;33900;53.640;9.942;2022-12-19T05:58:37;2.70;89.70
15099;DHT22;33900;53.640;9.942;2022-12-19T06:01:08;2.70;90.00
15099;DHT22;33900;53.640;9.942;2022-12-19T06:03:34;2.80;89.80
15099;DHT22;33900;53.640;9.942;2022-12-19T06:06:03;2.80;90.10
15099;DHT22;33900;53.640;9.942;2022-12-19T06:08:33;2.80;90.20
15099;DHT22;33900;53.640;9.942;2022-12-19T06:11:03;2.80;90.10
15099;DHT22;33900;53.640;9.942;2022-12-19T06:13:30;2.80;90.20
15099;DHT22;33900;53.640;9.942;2022-12-19T06:16:00;2.80;90.50
15099;DHT22;33900;53.640;9.942;2022-12-19T06:18:34;2.80;90.40
15099;DHT22;33900;53.640;9.942;2022-12-19T06:21:05;2.80;90.40
15099;DHT22;33900;53.640;9.942;2022-12-19T06:23:33;2.90;90.30
15099;DHT22;33900;53.640;9.942;2022-12-19T06:26:03;2.90;90.40
15099;DHT22;33900;53.640;9.942;2022-12-19T06:28:31;2.90;90.30
15099;DHT22;33900;53.640;9.942;2022-12-19T06:30:59;2.90;90.50
15099;DHT22;33900;53.640;9.942;2022-12-19T06:37:25;3.00;90.40
15099;DHT22;33900;53.640;9.942;2022-12-19T06:44:24;3.00;90.40
15099;DHT22;33900;53.640;9.942;2022-12-19T06:47:28;3.10;90.80
15099;DHT22;33900;53.640;9.942;2022-12-19T06:49:57;3.10;90.60
15099;DHT22;33900;53.640;9.942;2022-12-19T06:52:28;3.10;90.60
15099;DHT22;33900;53.640;9.942;2022-12-19T06:54:54;3.10;90.70
15099;DHT22;33900;53.640;9.942;2022-12-19T06:57:23;3.10;90.60
15099;DHT22;33900;53.640;9.942;2022-12-19T07:00:41;3.20;90.70
15099;DHT22;33900;53.640;9.942;2022-12-19T07:03:00;3.20;90.80
15099;DHT22;33900;53.640;9.942;2022-12-19T07:05:27;3.20;91.00
15099;DHT22;33900;53.640;9.942;2022-12-19T07:07:58;3.20;90.90
15099;DHT22;33900;53.640;9.942;2022-12-19T07:10:28;3.20;91.00
15099;DHT22;33900;53.640;9.942;2022-12-19T07:13:02;3.30;91.00
15099;DHT22;33900;53.640;9.942;2022-12-19T07:15:30;3.30;91.10
15099;DHT22;33900;53.640;9.942;2022-12-19T07:18:04;3.30;91.20
15099;DHT22;33900;53.640;9.942;2022-12-19T07:20:32;3.30;91.40
15099;DHT22;33900;53.640;9.942;2022-12-19T07:23:08;3.40;91.10
15099;DHT22;33900;53.640;9.942;2022-12-19T07:25:39;3.40;91.20
15099;DHT22;33900;53.640;9.942;2022-12-19T07:28:07;3.40;91.10
15099;DHT22;33900;53.640;9.942;2022-12-19T07:30:34;3.40;91.10
15099;DHT22;33900;53.640;9.942;2022-12-19T07:33:04;3.40;91.30
15099;DHT22;33900;53.640;9.942;2022-12-19T07:35:31;3.40;91.30
15099;DHT22;33900;53.640;9.942;2022-12-19T07:38:03;3.50;91.30
15099;DHT22;33900;53.640;9.942;2022-12-19T07:40:30;3.50;91.20
15099;DHT22;33900;53.640;9.942;2022-12-19T07:43:09;3.50;91.30
15099;DHT22;33900;53.640;9.942;2022-12-19T07:45:38;3.50;91.30
15099;DHT22;33900;53.640;9.942;2022-12-19T07:48:11;3.50;91.30
15099;DHT22;33900;53.640;9.942;2022-12-19T07:50:46;3.50;91.30
15099;DHT22;33900;53.640;9.942;2022-12-19T07:53:17;3.60;91.50
15099;DHT22;33900;53.640;9.942;2022-12-19T07:55:43;3.60;91.60
15099;DHT22;33900;53.640;9.942;2022-12-19T07:58:14;3.60;91.50
15099;DHT22;33900;53.640;9.942;2022-12-19T08:00:41;3.60;91.50
15099;DHT22;33900;53.640;9.942;2022-12-19T08:03:09;3.60;91.50
15099;DHT22;33900;53.640;9.942;2022-12-19T08:05:37;3.60;91.50
15099;DHT22;33900;53.640;9.942;2022-12-19T08:08:05;3.60;91.60
15099;DHT22;33900;53.640;9.942;2022-12-19T08:10:36;3.70;91.50
15099;DHT22;33900;53.640;9.942;2022-12-19T08:13:04;3.70;91.80
15099;DHT22;33900;53.640;9.942;2022-12-19T08:15:31;3.70;91.70
15099;DHT22;33900;53.640;9.942;2022-12-19T08:18:00;3.70;91.90
15099;DHT22;33900;53.640;9.942;2022-12-19T08:20:33;3.70;91.90
15099;DHT22;33900;53.640;9.942;2022-12-19T08:23:00;3.70;92.10
15099;DHT22;33900;53.640;9.942;2022-12-19T08:25:26;3.80;92.10
15099;DHT22;33900;53.640;9.942;2022-12-19T08:27:52;3.70;92.00
15099;DHT22;33900;53.640;9.942;2022-12-19T08:30:18;3.80;92.00
15099;DHT22;33900;53.640;9.942;2022-12-19T08:32:45;3.80;92.20
15099;DHT22;33900;53.640;9.942;2022-12-19T08:35:11;3.80;92.20
15099;DHT22;33900;53.640;9.942;2022-12-19T08:37:38;3.80;92.20
15099;DHT22;33900;53.640;9.942;2022-12-19T08:40:05;3.80;92.30
15099;DHT22;33900;53.640;9.942;2022-12-19T08:42:31;3.80;92.30
15099;DHT22;33900;53.640;9.942;2022-12-19T08:45:01;3.80;92.60
15099;DHT22;33900;53.640;9.942;2022-12-19T08:47:27;3.90;92.70
15099;DHT22;33900;53.640;9.942;2022-12-19T08:49:52;3.90;92.90
15099;DHT22;33900;53.640;9.942;2022-12-19T08:52:18;3.90;93.20
15099;DHT22;33900;53.640;9.942;2022-12-19T08:54:44;3.90;93.00
15099;DHT22;33900;53.640;9.942;2022-12-19T08:57:09;3.90;93.00
15099;DHT22;33900;53.640;9.942;2022-12-19T08:59:35;3.90;93.10
15099;DHT22;33900;53.640;9.942;2022-12-19T09:02:01;3.90;93.20
15099;DHT22;33900;53.640;9.942;2022-12-19T09:04:27;3.90;93.30
15099;DHT22;33900;53.640;9.942;2022-12-19T09:06:53;3.90;93.20
15099;DHT22;33900;53.640;9.942;2022-12-19T09:09:21;3.90;93.10
15099;DHT22;33900;53.640;9.942;2022-12-19T09:11:47;4.00;93.10
15099;DHT22;33900;53.640;9.942;2022-12-19T09:14:19;4.00;93.00
15099;DHT22;33900;53.640;9.942;2022-12-19T09:16:47;4.00;93.40
15099;DHT22;33900;53.640;9.942;2022-12-19T09:19:13;4.00;93.30
15099;DHT22;33900;53.640;9.942;2022-12-19T09:21:40;4.00;93.20
15099;DHT22;33900;53.640;9.942;2022-12-19T09:24:07;4.10;93.20
15099;DHT22;33900;53.640;9.942;2022-12-19T09:26:33;4.10;93.20
15099;DHT22;33900;53.640;9.942;2022-12-19T09:28:59;4.10;93.20
15099;DHT22;33900;53.640;9.942;2022-12-19T09:31:25;4.10;93.20
15099;DHT22;33900;53.640;9.942;2022-12-19T09:33:51;4.10;93.30
15099;DHT22;33900;53.640;9.942;2022-12-19T09:36:18;4.10;93.30
15099;DHT22;33900;53.640;9.942;2022-12-19T09:38:45;4.10;93.20
15099;DHT22;33900;53.640;9.942;2022-12-19T09:44:07;4.20;93.70
15099;DHT22;33900;53.640;9.942;2022-12-19T09:49:08;4.20;93.60
15099;DHT22;33900;53.640;9.942;2022-12-19T09:51:37;4.20;93.60
15099;DHT22;33900;53.640;9.942;2022-12-19T09:56:51;4.30;93.70
15099;DHT22;33900;53.640;9.942;2022-12-19T09:59:22;4.30;93.60
15099;DHT22;33900;53.640;9.942;2022-12-19T10:04:34;4.30;93.60
15099;DHT22;33900;53.640;9.942;2022-12-19T10:07:00;4.30;94.00
15099;DHT22;33900;53.640;9.942;2022-12-19T10:09:31;4.30;93.70
15099;DHT22;33900;53.640;9.942;2022-12-19T10:12:05;4.30;93.70
15099;DHT22;33900;53.640;9.942;2022-12-19T10:14:40;4.30;93.80
15099;DHT22;33900;53.640;9.942;2022-12-19T10:22:33;4.40;93.70
15099;DHT22;33900;53.640;9.942;2022-12-19T10:30:31;4.50;93.80
15099;DHT22;33900;53.640;9.942;2022-12-19T10:35:34;4.50;93.80
15099;DHT22;33900;53.640;9.942;2022-12-19T10:40:32;4.60;94.00
15099;DHT22;33900;53.640;9.942;2022-12-19T10:43:10;4.60;93.90
15099;DHT22;33900;53.640;9.942;2022-12-19T10:45:45;4.60;93.90
15099;DHT22;33900;53.640;9.942;2022-12-19T10:48:26;4.60;94.10
15099;DHT22;33900;53.640;9.942;2022-12-19T10:50:55;4.70;94.10
15099;DHT22;33900;53.640;9.942;2022-12-19T10:53:25;4.70;94.10
15099;DHT22;33900;53.640;9.942;2022-12-19T10:56:11;4.70;93.90
15099;DHT22;33900;53.640;9.942;2022-12-19T10:58:37;4.70;94.10
15099;DHT22;33900;53.640;9.942;2022-12-19T11:01:13;4.70;94.00
15099;DHT22;33900;53.640;9.942;2022-12-19T11:03:45;4.80;94.10
15099;DHT22;33900;53.640;9.942;2022-12-19T11:09:44;4.80;94.30
15099;DHT22;33900;53.640;9.942;2022-12-19T11:11:45;4.80;94.00
15099;DHT22;33900;53.640;9.942;2022-12-19T11:14:22;4.90;94.00
15099;DHT22;33900;53.640;9.942;2022-12-19T11:16:49;4.90;94.00
15099;DHT22;33900;53.640;9.942;2022-12-19T11:19:30;4.90;94.20
15099;DHT22;33900;53.640;9.942;2022-12-19T11:21:59;4.90;94.00
15099;DHT22;33900;53.640;9.942;2022-12-19T11:24:34;4.90;93.90
15099;DHT22;33900;53.640;9.942;2022-12-19T11:27:01;4.90;93.90
15099;DHT22;33900;53.640;9.942;2022-12-19T11:29:40;4.90;94.00
15099;DHT22;33900;53.640;9.942;2022-12-19T11:32:20;5.00;94.00
15099;DHT22;33900;53.640;9.942;2022-12-19T11:34:50;5.00;94.30
15099;DHT22;33900;53.640;9.942;2022-12-19T11:37:25;5.00;94.10
15099;DHT22;33900;53.640;9.942;2022-12-19T11:40:27;5.00;94.00
15099;DHT22;33900;53.640;9.942;2022-12-19T11:42:50;5.00;93.90
15099;DHT22;33900;53.640;9.942;2022-12-19T11:45:19;5.10;94.00
15099;DHT22;33900;53.640;9.942;2022-12-19T11:50:19;5.10;93.80
15099;DHT22;33900;53.640;9.942;2022-12-19T11:58:16;5.20;93.80
15099;DHT22;33900;53.640;9.942;2022-12-19T12:06:17;5.20;93.70
15099;DHT22;33900;53.640;9.942;2022-12-19T12:11:37;5.30;93.60
15099;DHT22;33900;53.640;9.942;2022-12-19T12:16:38;5.30;93.50
15099;DHT22;33900;53.640;9.942;2022-12-19T12:21:34;5.40;93.50
15099;DHT22;33900;53.640;9.942;2022-12-19T12:29:24;5.40;93.40
15099;DHT22;33900;53.640;9.942;2022-12-19T12:44:36;5.60;93.30
15099;DHT22;33900;53.640;9.942;2022-12-19T12:49:55;5.70;93.30
15099;DHT22;33900;53.640;9.942;2022-12-19T12:52:40;5.60;93.20
15099;DHT22;33900;53.640;9.942;2022-12-19T12:55:26;5.70;93.30
15099;DHT22;33900;53.640;9.942;2022-12-19T12:57:54;5.70;93.30
15099;DHT22;33900;53.640;9.942;2022-12-19T13:00:24;5.70;93.20
15099;DHT22;33900;53.640;9.942;2022-12-19T13:02:52;5.80;93.30
15099;DHT22;33900;53.640;9.942;2022-12-19T13:05:23;5.80;93.30
15099;DHT22;33900;53.640;9.942;2022-12-19T13:07:51;5.80;93.30
15099;DHT22;33900;53.640;9.942;2022-12-19T13:10:24;5.90;93.30
15099;DHT22;33900;53.640;9.942;2022-12-19T13:12:51;5.90;93.20
15099;DHT22;33900;53.640;9.942;2022-12-19T13:27:50;6.10;93.40
15099;DHT22;33900;53.640;9.942;2022-12-19T13:30:23;6.20;93.50
15099;DHT22;33900;53.640;9.942;2022-12-19T13:37:41;6.30;93.50
15099;DHT22;33900;53.640;9.942;2022-12-19T13:42:34;6.40;93.50
15099;DHT22;33900;53.640;9.942;2022-12-19T13:45:21;6.40;93.60
15099;DHT22;33900;53.640;9.942;2022-12-19T13:47:48;6.50;93.50
15099;DHT22;33900;53.640;9.942;2022-12-19T13:50:24;6.50;93.40
15099;DHT22;33900;53.640;9.942;2022-12-19T13:52:51;6.50;93.40
15099;DHT22;33900;53.640;9.942;2022-12-19T13:55:16;6.50;93.40
15099;DHT22;33900;53.640;9.942;2022-12-19T13:57:46;6.60;93.40
15099;DHT22;33900;53.640;9.942;2022-12-19T14:00:15;6.60;93.50
15099;DHT22;33900;53.640;9.942;2022-12-19T14:02:54;6.60;93.50
15099;DHT22;33900;53.640;9.942;2022-12-19T14:07:56;6.70;93.70
15099;DHT22;33900;53.640;9.942;2022-12-19T14:10:24;6.70;93.60
15099;DHT22;33900;53.640;9.942;2022-12-19T14:12:52;6.70;93.60
15099;DHT22;33900;53.640;9.942;2022-12-19T14:15:38;6.70;93.50
15099;DHT22;33900;53.640;9.942;2022-12-19T14:18:48;6.80;93.50
15099;DHT22;33900;53.640;9.942;2022-12-19T14:23:39;6.80;93.60
15099;DHT22;33900;53.640;9.942;2022-12-19T14:26:12;6.80;93.50
15099;DHT22;33900;53.640;9.942;2022-12-19T14:28:54;6.80;93.60
15099;DHT22;33900;53.640;9.942;2022-12-19T14:31:21;6.80;93.60
15099;DHT22;33900;53.640;9.942;2022-12-19T14:33:48;6.90;93.60
15099;DHT22;33900;53.640;9.942;2022-12-19T14:36:28;6.90;93.50
15099;DHT22;33900;53.640;9.942;2022-12-19T14:38:54;6.90;93.60
15099;DHT22;33900;53.640;9.942;2022-12-19T14:41:37;7.00;93.60
15099;DHT22;33900;53.640;9.942;2022-12-19T14:44:23;7.00;93.50
15099;DHT22;33900;53.640;9.942;2022-12-19T14:47:13;7.00;93.60
15099;DHT22;33900;53.640;9.942;2022-12-19T14:49:44;7.00;93.70
15099;DHT22;33900;53.640;9.942;2022-12-19T14:57:39;7.10;93.80
15099;DHT22;33900;53.640;9.942;2022-12-19T15:02:50;7.10;93.80
15099;DHT22;33900;53.640;9.942;2022-12-19T15:05:19;7.10;93.80
15099;DHT22;33900;53.640;9.942;2022-12-19T15:07:45;7.10;93.80
15099;DHT22;33900;53.640;9.942;2022-12-19T15:21:02;7.20;93.90
15099;DHT22;33900;53.640;9.942;2022-12-19T15:23:28;7.20;93.90
15099;DHT22;33900;53.640;9.942;2022-12-19T15:25:54;7.20;94.00
15099;DHT22;33900;53.640;9.942;2022-12-19T15:28:22;7.30;93.90
15099;DHT22;33900;53.640;9.942;2022-12-19T15:30:54;7.30;94.00
15099;DHT22;33900;53.640;9.942;2022-12-19T15:33:20;7.40;93.90
15099;DHT22;33900;53.640;9.942;2022-12-19T15:35:49;7.30;93.90
15099;DHT22;33900;53.640;9.942;2022-12-19T15:38:18;7.30;93.90
15099;DHT22;33900;53.640;9.942;2022-12-19T15:40:43;7.40;94.00
15099;DHT22;33900;53.640;9.942;2022-12-19T15:43:16;7.40;94.00
15099;DHT22;33900;53.640;9.942;2022-12-19T15:45:44;7.40;93.90
15099;DHT22;33900;53.640;9.942;2022-12-19T15:48:15;7.40;93.90
15099;DHT22;33900;53.640;9.942;2022-12-19T15:50:42;7.50;94.00
15099;DHT22;33900;53.640;9.942;2022-12-19T15:55:46;7.50;94.30
15099;DHT22;33900;53.640;9.942;2022-12-19T15:58:13;7.50;94.20
15099;DHT22;33900;53.640;9.942;2022-12-19T16:00:39;7.50;94.20
15099;DHT22;33900;53.640;9.942;2022-12-19T16:03:08;7.50;94.20
15099;DHT22;33900;53.640;9.942;2022-12-19T16:05:39;7.50;94.10
15099;DHT22;33900;53.640;9.942;2022-12-19T16:08:16;7.60;94.30
15099;DHT22;33900;53.640;9.942;2022-12-19T16:10:42;7.60;94.50
15099;DHT22;33900;53.640;9.942;2022-12-19T16:13:13;7.60;94.70
15099;DHT22;33900;53.640;9.942;2022-12-19T16:15:40;7.60;94.60
15099;DHT22;33900;53.640;9.942;2022-12-19T16:18:08;7.70;94.80
15099;DHT22;33900;53.640;9.942;2022-12-19T16:20:35;7.70;94.70
15099;DHT22;33900;53.640;9.942;2022-12-19T16:23:02;7.70;94.70
15099;DHT22;33900;53.640;9.942;2022-12-19T16:25:32;7.70;94.70
15099;DHT22;33900;53.640;9.942;2022-12-19T16:27:59;7.70;94.90
15099;DHT22;33900;53.640;9.942;2022-12-19T16:30:27;7.70;94.80
15099;DHT22;33900;53.640;9.942;2022-12-19T16:32:53;7.70;94.70
15099;DHT22;33900;53.640;9.942;2022-12-19T16:35:20;7.80;94.70
15099;DHT22;33900;53.640;9.942;2022-12-19T16:37:47;7.80;94.90
15099;DHT22;33900;53.640;9.942;2022-12-19T16:40:16;7.80;94.90
15099;DHT22;33900;53.640;9.942;2022-12-19T16:42:43;7.80;94.80
15099;DHT22;33900;53.640;9.942;2022-12-19T16:45:19;7.80;94.70
15099;DHT22;33900;53.640;9.942;2022-12-19T16:47:45;7.80;94.70
15099;DHT22;33900;53.640;9.942;2022-12-19T16:50:17;7.90;94.70
15099;DHT22;33900;53.640;9.942;2022-12-19T16:52:43;7.90;94.70
15099;DHT22;33900;53.640;9.942;2022-12-19T16:55:08;7.90;94.60
15099;DHT22;33900;53.640;9.942;2022-12-19T16:57:34;7.90;94.70
15099;DHT22;33900;53.640;9.942;2022-12-19T17:00:00;7.90;94.60
15099;DHT22;33900;53.640;9.942;2022-12-19T17:05:00;8.00;94.70
15099;DHT22;33900;53.640;9.942;2022-12-19T17:07:26;8.00;94.60
15099;DHT22;33900;53.640;9.942;2022-12-19T17:09:52;8.00;94.80
15099;DHT22;33900;53.640;9.942;2022-12-19T17:12:18;8.00;94.70
15099;DHT22;33900;53.640;9.942;2022-12-19T17:14:44;8.00;94.70
15099;DHT22;33900;53.640;9.942;2022-12-19T17:17:12;8.00;94.80
15099;DHT22;33900;53.640;9.942;2022-12-19T17:19:39;8.00;94.80
15099;DHT22;33900;53.640;9.942;2022-12-19T17:22:16;8.10;94.90
15099;DHT22;33900;53.640;9.942;2022-12-19T17:24:42;8.10;94.90
15099;DHT22;33900;53.640;9.942;2022-12-19T17:27:09;8.10;95.00
15099;DHT22;33900;53.640;9.942;2022-12-19T17:29:34;8.10;94.90
15099;DHT22;33900;53.640;9.942;2022-12-19T17:32:00;8.10;95.00
15099;DHT22;33900;53.640;9.942;2022-12-19T17:34:28;8.10;95.00
15099;DHT22;33900;53.640;9.942;2022-12-19T17:36:55;8.10;94.90
15099;DHT22;33900;53.640;9.942;2022-12-19T17:39:23;8.20;94.80
15099;DHT22;33900;53.640;9.942;2022-12-19T17:41:53;8.10;94.80
15099;DHT22;33900;53.640;9.942;2022-12-19T17:44:19;8.20;94.80
15099;DHT22;33900;53.640;9.942;2022-12-19T17:46:45;8.20;94.80
15099;DHT22;33900;53.640;9.942;2022-12-19T17:49:16;8.20;94.80
15099;DHT22;33900;53.640;9.942;2022-12-19T17:51:47;8.20;94.80
15099;DHT22;33900;53.640;9.942;2022-12-19T17:54:32;8.20;95.40
15099;DHT22;33900;53.640;9.942;2022-12-19T17:56:58;8.20;95.40
15099;DHT22;33900;53.640;9.942;2022-12-19T17:59:23;8.20;95.40
15099;DHT22;33900;53.640;9.942;2022-12-19T18:01:49;8.20;95.30
15099;DHT22;33900;53.640;9.942;2022-12-19T18:04:15;8.20;95.30
15099;DHT22;33900;53.640;9.942;2022-12-19T18:06:44;8.30;95.50
15099;DHT22;33900;53.640;9.942;2022-12-19T18:09:24;8.30;95.50
15099;DHT22;33900;53.640;9.942;2022-12-19T18:11:50;8.30;95.30
15099;DHT22;33900;53.640;9.942;2022-12-19T18:14:16;8.30;95.40
15099;DHT22;33900;53.640;9.942;2022-12-19T18:16:43;8.30;95.40
15099;DHT22;33900;53.640;9.942;2022-12-19T18:19:16;8.30;95.30
15099;DHT22;33900;53.640;9.942;2022-12-19T18:21:42;8.30;95.50
15099;DHT22;33900;53.640;9.942;2022-12-19T18:24:11;8.30;95.40
15099;DHT22;33900;53.640;9.942;2022-12-19T18:26:40;8.30;95.40
15099;DHT22;33900;53.640;9.942;2022-12-19T18:29:06;8.30;95.30
15099;DHT22;33900;53.640;9.942;2022-12-19T18:31:32;8.30;95.50
15099;DHT22;33900;53.640;9.942;2022-12-19T18:33:58;8.40;95.40
15099;DHT22;33900;53.640;9.942;2022-12-19T18:36:27;8.40;95.30
15099;DHT22;33900;53.640;9.942;2022-12-19T18:38:54;8.40;95.40
15099;DHT22;33900;53.640;9.942;2022-12-19T18:41:20;8.30;95.40
15099;DHT22;33900;53.640;9.942;2022-12-19T18:43:46;8.40;95.30
15099;DHT22;33900;53.640;9.942;2022-12-19T18:46:16;8.40;95.30
15099;DHT22;33900;53.640;9.942;2022-12-19T18:48:43;8.40;95.30
15099;DHT22;33900;53.640;9.942;2022-12-19T18:51:16;8.40;95.30
15099;DHT22;33900;53.640;9.942;2022-12-19T18:53:43;8.40;95.40